Time;durP1;ratioP1;P1;durP2;ratioP2;P2;SDS_P1;SDS_P2;PMS_P1;PMS_P2;Temp;Humidity;BMP_temperature;BMP_pressure;BME280_temperature;BME280_humidity;BME280_pressure;Samples;Min_cycle;Max_cycle;Signal;HPM_P1;HPM_P2
2021/05/16 00:00:23;;;;;;;12.05;10.32;;;;;;;18.04;100.00;100391.59;5136483;27;20333;-73
2021/05/16 00:03:09;;;;;;;12.95;11.52;;;;;;;18.28;100.00;100396.47;5121361;27;20019;-75
2021/05/16 00:05:55;;;;;;;12.82;11.52;;;;;;;18.33;100.00;100390.94;5136059;27;20123;-73
2021/05/16 00:08:41;;;;;;;11.35;10.18;;;;;;;18.20;100.00;100390.72;5135477;27;20452;-74
2021/05/16 00:11:27;;;;;;;11.85;9.95;;;;;;;18.31;100.00;100387.50;5136079;27;20038;-73
2021/05/16 00:14:13;;;;;;;13.57;12.05;;;;;;;18.31;100.00;100388.34;5120683;27;20026;-73
2021/05/16 00:16:59;;;;;;;11.57;9.75;;;;;;;18.18;100.00;100386.44;5135090;27;20114;-74
2021/05/16 00:19:47;;;;;;;13.45;10.68;;;;;;;18.18;100.00;100386.44;5135157;27;20084;-74
2021/05/16 00:22:32;;;;;;;12.45;11.15;;;;;;;18.29;100.00;100384.91;5136271;27;20027;-76
2021/05/16 00:25:20;;;;;;;11.75;10.65;;;;;;;18.16;100.00;100383.00;5126629;27;20167;-74
2021/05/16 00:28:06;;;;;;;12.25;10.40;;;;;;;18.48;100.00;100372.41;5135488;27;20023;-74
2021/05/16 00:30:52;;;;;;;12.10;10.13;;;;;;;18.41;100.00;100367.53;5135330;27;20066;-73
2021/05/16 00:33:38;;;;;;;11.45;9.65;;;;;;;18.56;100.00;100377.28;5135225;27;20019;-74
2021/05/16 00:36:24;;;;;;;11.55;9.82;;;;;;;18.52;100.00;100370.44;5134895;27;20055;-74
2021/05/16 00:39:10;;;;;;;11.60;9.45;;;;;;;17.91;100.00;100377.28;5136236;27;20050;-75
2021/05/16 00:41:55;;;;;;;10.10;9.10;;;;;;;17.75;100.00;100386.97;5121120;27;20540;-74
2021/05/16 00:45:04;;;;;;;13.50;10.48;;;;;;;17.93;100.00;100376.28;5134788;27;20027;-74
2021/05/16 00:47:56;;;;;;;11.43;9.30;;;;;;;18.18;100.00;100378.50;5134981;27;20107;-74
2021/05/16 00:50:46;;;;;;;12.10;10.88;;;;;;;18.27;100.00;100376.19;5134649;27;20023;-74
2021/05/16 00:53:33;;;;;;;11.85;10.65;;;;;;;18.39;100.00;100370.25;5134904;27;20030;-75
2021/05/16 00:56:20;;;;;;;13.48;10.38;;;;;;;18.36;100.00;100373.06;5134316;27;20043;-74
2021/05/16 00:59:06;;;;;;;13.35;10.00;;;;;;;18.10;100.00;100370.09;5135130;28;20059;-74
2021/05/16 01:01:53;;;;;;;13.82;10.30;;;;;;;18.19;100.00;100372.25;5134627;28;20118;-75
2021/05/16 01:04:42;;;;;;;11.93;10.65;;;;;;;18.44;100.00;100367.34;5134702;28;20031;-75
2021/05/16 01:07:28;;;;;;;12.27;10.35;;;;;;;18.54;100.00;100368.56;5134511;28;20023;-74
2021/05/16 01:10:15;;;;;;;12.55;11.35;;;;;;;18.11;100.00;100371.78;5134829;28;20026;-74
2021/05/16 01:13:04;;;;;;;13.35;11.00;;;;;;;18.07;100.00;100363.16;5138894;27;20106;-75
2021/05/16 01:15:50;;;;;;;11.25;10.05;;;;;;;18.17;100.00;100363.53;5138678;27;20054;-75
2021/05/16 01:18:36;;;;;;;12.32;11.07;;;;;;;17.79;100.00;100370.00;5139992;27;20065;-74
2021/05/16 01:21:22;;;;;;;14.77;10.80;;;;;;;18.02;100.00;100369.63;5138923;27;20027;-74
2021/05/16 01:24:16;;;;;;;14.25;11.55;;;;;;;18.21;100.00;100365.91;5139089;27;20023;-75
2021/05/16 01:27:08;;;;;;;15.98;12.07;;;;;;;18.27;100.00;100370.91;5138525;27;20050;-74
2021/05/16 01:29:54;;;;;;;12.82;11.32;;;;;;;18.37;100.00;100369.47;5139533;27;20027;-74
2021/05/16 01:32:40;;;;;;;13.25;11.98;;;;;;;18.24;100.00;100363.09;5122714;27;20027;-74
2021/05/16 01:35:26;;;;;;;13.82;12.30;;;;;;;18.07;100.00;100365.81;5138385;27;20023;-74
2021/05/16 01:38:13;;;;;;;15.18;13.10;;;;;;;17.92;100.00;100357.81;5138022;27;20023;-74
2021/05/16 01:40:59;;;;;;;16.67;13.65;;;;;;;17.83;100.00;100364.47;5123592;27;20027;-74
2021/05/16 01:43:46;;;;;;;14.77;13.20;;;;;;;17.74;100.00;100372.03;5124171;27;20469;-74
2021/05/16 01:46:32;;;;;;;15.95;14.20;;;;;;;17.96;100.00;100376.13;5138432;27;20046;-74
2021/05/16 01:49:18;;;;;;;18.48;13.70;;;;;;;18.08;100.00;100374.59;5138184;27;20511;-74
2021/05/16 01:52:04;;;;;;;16.02;14.10;;;;;;;17.97;100.00;100392.91;5122620;27;20447;-74
2021/05/16 01:54:50;;;;;;;19.05;13.65;;;;;;;17.83;100.00;100384.78;5137726;27;20050;-75
2021/05/16 01:57:37;;;;;;;15.25;13.00;;;;;;;18.09;100.00;100382.47;5138781;27;20110;-74
2021/05/16 02:00:29;;;;;;;14.38;11.80;;;;;;;17.70;100.00;100368.69;5123001;27;20038;-75
2021/05/16 02:03:14;;;;;;;16.17;12.98;;;;;;;17.79;100.00;100370.84;5138795;27;20114;-75
2021/05/16 02:06:01;;;;;;;18.58;13.93;;;;;;;17.85;100.00;100372.34;5139104;27;20463;-74
2021/05/16 02:08:47;;;;;;;15.52;13.18;;;;;;;18.10;100.00;100370.97;5137666;27;20106;-75
2021/05/16 02:11:33;;;;;;;16.33;14.32;;;;;;;18.23;100.00;100368.47;5138320;27;20027;-74
2021/05/16 02:14:30;;;;;;;14.80;13.18;;;;;;;17.92;100.00;100371.09;5138147;27;20023;-74
2021/05/16 02:17:16;;;;;;;13.52;12.05;;;;;;;17.73;100.00;100371.16;5139007;27;20455;-75
2021/05/16 02:20:02;;;;;;;13.02;11.57;;;;;;;18.09;100.00;100365.72;5122915;27;20027;-75
2021/05/16 02:22:48;;;;;;;13.27;11.93;;;;;;;17.67;100.00;100363.53;5136942;27;20031;-75
2021/05/16 02:25:35;;;;;;;14.55;13.05;;;;;;;17.78;100.00;100361.19;5138019;27;20075;-74
2021/05/16 02:28:21;;;;;;;17.88;14.23;;;;;;;17.86;100.00;100369.59;5137690;27;20062;-75
2021/05/16 02:31:13;;;;;;;16.05;14.27;;;;;;;18.12;100.00;100371.72;5137965;27;20027;-74
2021/05/16 02:33:59;;;;;;;16.20;13.57;;;;;;;18.17;100.00;100374.13;5137810;27;20431;-73
2021/05/16 02:36:45;;;;;;;14.80;13.30;;;;;;;18.13;100.00;100372.59;5137388;27;20371;-74
2021/05/16 02:39:31;;;;;;;14.38;12.85;;;;;;;17.98;100.00;100373.41;5137912;27;20458;-74
2021/05/16 02:42:17;;;;;;;16.15;12.20;;;;;;;18.00;100.00;100379.44;5123081;27;20031;-74
2021/05/16 02:45:04;;;;;;;16.95;12.60;;;;;;;18.26;100.00;100385.09;5138157;27;20027;-75
2021/05/16 02:47:50;;;;;;;14.73;12.55;;;;;;;18.34;100.00;100390.03;5138177;27;20016;-75
2021/05/16 02:50:36;;;;;;;14.95;12.82;;;;;;;18.25;100.00;100391.31;5136903;27;20491;-73
2021/05/16 02:53:23;;;;;;;15.32;13.25;;;;;;;18.17;100.00;100384.75;5136875;27;20424;-74
2021/05/16 02:56:08;;;;;;;14.73;13.23;;;;;;;18.16;100.00;100389.16;5136587;27;20451;-74
2021/05/16 02:58:54;;;;;;;14.82;13.10;;;;;;;18.05;100.00;100386.22;5137144;27;20035;-73
2021/05/16 03:01:40;;;;;;;16.27;14.25;;;;;;;18.31;100.00;100384.84;5136706;27;20029;-74
2021/05/16 03:04:26;;;;;;;15.88;13.32;;;;;;;17.93;100.00;100392.19;5137280;27;20431;-75
2021/05/16 03:07:12;;;;;;;16.77;13.10;;;;;;;18.33;100.00;100385.63;5137291;27;20023;-75
2021/05/16 03:09:57;;;;;;;19.25;14.98;;;;;;;18.14;100.00;100379.59;5137970;27;20163;-75
2021/05/16 03:12:43;;;;;;;16.63;14.80;;;;;;;17.97;100.00;100382.28;5137173;27;20027;-75
2021/05/16 03:15:29;;;;;;;18.48;14.90;;;;;;;18.18;100.00;100386.44;5122547;27;20367;-74
2021/05/16 03:18:15;;;;;;;23.58;18.35;;;;;;;18.10;100.00;100397.47;5136843;27;20027;-74
2021/05/16 03:21:01;;;;;;;18.75;16.83;;;;;;;18.39;100.00;100393.28;5136976;27;20119;-74
2021/05/16 03:23:47;;;;;;;20.10;18.10;;;;;;;18.39;100.00;100395.91;5137163;27;20102;-73
2021/05/16 03:26:33;;;;;;;20.02;18.00;;;;;;;17.93;100.00;100396.66;5136669;27;20359;-73
2021/05/16 03:29:18;;;;;;;20.85;18.08;;;;;;;17.95;100.00;100403.56;5114391;27;20023;-73
2021/05/16 03:32:05;;;;;;;21.42;18.77;;;;;;;17.83;100.00;100406.88;5135430;27;20026;-74
2021/05/16 03:34:50;;;;;;;18.33;16.25;;;;;;;17.48;100.00;100423.69;5134105;27;20031;-73
2021/05/16 03:37:37;;;;;;;19.30;15.60;;;;;;;17.80;100.00;100419.44;5122321;27;20027;-75
2021/05/16 03:40:22;;;;;;;16.85;14.88;;;;;;;17.80;100.00;100414.97;5136002;27;20122;-75
2021/05/16 03:43:08;;;;;;;15.45;13.88;;;;;;;17.90;100.00;100415.34;5121488;27;20054;-75
2021/05/16 03:45:54;;;;;;;15.25;12.65;;;;;;;17.75;100.00;100416.13;5135872;27;20038;-73
2021/05/16 03:48:40;;;;;;;13.15;11.82;;;;;;;17.67;100.00;100413.88;5135219;27;20364;-73
2021/05/16 03:51:26;;;;;;;13.93;12.48;;;;;;;18.18;100.00;100408.53;5135787;27;20019;-73
2021/05/16 03:54:12;;;;;;;16.88;12.35;;;;;;;18.11;100.00;100404.47;5135001;27;20054;-74
2021/05/16 03:56:58;;;;;;;12.35;10.98;;;;;;;18.15;100.00;100405.16;5121312;27;20469;-75
2021/05/16 03:59:44;;;;;;;13.48;9.43;;;;;;;17.98;100.00;100406.06;5134921;27;20129;-75
2021/05/16 04:02:30;;;;;;;10.32;8.93;;;;;;;18.19;100.00;100396.09;5120529;27;20423;-74
2021/05/16 04:05:16;;;;;;;10.18;8.65;;;;;;;18.18;100.00;100397.91;5135710;27;20424;-74
2021/05/16 04:08:02;;;;;;;11.52;8.68;;;;;;;17.88;100.00;100394.22;5134129;27;20023;-74
2021/05/16 04:10:48;;;;;;;9.75;8.25;;;;;;;17.85;100.00;100390.88;5120849;27;20114;-75
2021/05/16 04:13:34;;;;;;;9.15;7.78;;;;;;;17.80;100.00;100398.22;5128871;27;20077;-75
2021/05/16 04:16:20;;;;;;;10.73;7.80;;;;;;;17.83;100.00;100398.91;5134561;27;20385;-73
2021/05/16 04:19:05;;;;;;;10.68;8.10;;;;;;;17.81;100.00;100407.88;5122001;27;20023;-74
2021/05/16 04:21:51;;;;;;;11.18;7.85;;;;;;;18.21;100.00;100404.84;5135351;27;20027;-73
2021/05/16 04:24:37;;;;;;;8.85;7.75;;;;;;;18.50;100.00;100393.53;5135336;27;20055;-75
2021/05/16 04:27:23;;;;;;;9.07;7.18;;;;;;;18.24;100.00;100399.34;5136191;27;20038;-74
2021/05/16 04:30:09;;;;;;;8.10;7.30;;;;;;;18.54;100.00;100401.28;5120643;27;20457;-75
2021/05/16 04:32:55;;;;;;;9.43;6.93;;;;;;;18.73;100.00;100395.78;5134705;27;20029;-75
2021/05/16 04:35:42;;;;;;;9.98;6.70;;;;;;;18.42;100.00;100407.25;5135287;27;20027;-73
2021/05/16 04:38:30;;;;;;;8.45;6.40;;;;;;;18.55;100.00;100402.09;5135186;27;20027;-74
2021/05/16 04:41:16;;;;;;;9.40;6.30;;;;;;;18.60;100.00;100405.34;5121207;27;20482;-74
2021/05/16 04:44:03;;;;;;;7.32;5.80;;;;;;;18.71;100.00;100397.66;5120236;27;20053;-75
2021/05/16 04:46:48;;;;;;;7.90;5.47;;;;;;;19.10;100.00;100404.22;5118392;27;20018;-76
2021/05/16 04:49:35;;;;;;;8.13;5.70;;;;;;;19.03;100.00;100397.56;5135447;27;20359;-75
2021/05/16 04:52:21;;;;;;;7.47;5.45;;;;;;;19.22;100.00;100395.56;5135341;27;20098;-75
2021/05/16 04:55:07;;;;;;;8.38;5.07;;;;;;;19.62;100.00;100394.13;5134971;27;20054;-75
2021/05/16 04:57:54;;;;;;;8.05;4.60;;;;;;;19.24;100.00;100386.69;5135352;28;20039;-74
2021/05/16 05:00:40;;;;;;;6.97;4.38;;;;;;;19.03;100.00;100388.75;5135284;28;20022;-74
2021/05/16 05:03:25;;;;;;;6.93;4.53;;;;;;;19.67;100.00;100385.84;5120854;28;20091;-74
2021/05/16 05:06:11;;;;;;;5.13;3.72;;;;;;;19.81;100.00;100386.75;5135041;28;20106;-75
2021/05/16 05:08:58;;;;;;;8.00;4.10;;;;;;;19.64;100.00;100397.53;5119546;28;20073;-75
2021/05/16 05:11:44;;;;;;;9.43;4.25;;;;;;;19.21;100.00;100387.69;5133675;28;20023;-74
2021/05/16 05:14:30;;;;;;;7.57;4.90;;;;;;;19.29;100.00;100390.78;5120413;28;20024;-73
2021/05/16 05:17:15;;;;;;;8.40;5.00;;;;;;;19.22;100.00;100387.59;5121119;28;20027;-75
2021/05/16 05:20:01;;;;;;;8.95;4.53;;;;;;;19.06;100.00;100384.09;5120467;28;20027;-75
2021/05/16 05:22:47;;;;;;;6.85;4.20;;;;;;;19.51;100.00;100393.91;5120820;28;20109;-74
2021/05/16 05:25:33;;;;;;;11.77;5.35;;;;;;;19.77;100.00;100387.88;5134906;28;20019;-74
2021/05/16 05:28:18;;;;;;;7.68;4.80;;;;;;;19.67;100.00;100384.06;5134395;28;20061;-74
2021/05/16 05:31:04;;;;;;;5.20;4.63;;;;;;;19.24;100.00;100389.34;5134464;28;20027;-74
2021/05/16 05:33:50;;;;;;;8.43;4.40;;;;;;;19.10;100.00;100398.91;5135498;28;20473;-74
2021/05/16 05:36:36;;;;;;;4.43;3.90;;;;;;;19.31;100.00;100391.56;5119217;28;20031;-74
2021/05/16 05:39:22;;;;;;;8.85;4.85;;;;;;;19.85;100.00;100395.41;5135229;28;20023;-73
2021/05/16 05:42:07;;;;;;;8.50;4.63;;;;;;;19.75;100.00;100394.22;5134643;28;20031;-73
2021/05/16 05:44:53;;;;;;;4.40;3.72;;;;;;;20.06;100.00;100399.41;5134441;28;20102;-74
2021/05/16 05:47:41;;;;;;;8.63;3.97;;;;;;;20.20;100.00;100407.41;5137093;28;20019;-73
2021/05/16 05:50:26;;;;;;;7.90;3.70;;;;;;;19.88;100.00;100401.38;5122544;28;20039;-73
2021/05/16 05:53:13;;;;;;;7.70;4.00;;;;;;;20.09;100.00;100408.09;5122130;28;20035;-75
2021/05/16 05:55:59;;;;;;;6.28;3.42;;;;;;;20.12;100.00;100407.91;5120781;28;20043;-75
2021/05/16 05:58:45;;;;;;;6.38;3.95;;;;;;;20.04;100.00;100410.16;5136159;27;20371;-75
2021/05/16 06:01:31;;;;;;;5.90;3.50;;;;;;;20.25;100.00;100408.00;5123173;27;20023;-74
2021/05/16 06:04:16;;;;;;;8.32;3.60;;;;;;;19.81;100.00;100405.34;5123180;27;20034;-75
2021/05/16 06:07:04;;;;;;;25.17;18.17;;;;;;;20.37;100.00;100410.75;5122801;27;20025;-74
2021/05/16 06:09:50;;;;;;;7.15;4.38;;;;;;;20.19;100.00;100405.72;5137669;27;20367;-75
2021/05/16 06:12:35;;;;;;;6.13;4.00;;;;;;;19.94;100.00;100400.16;5123045;27;20026;-73
2021/05/16 06:15:22;;;;;;;7.35;4.18;;;;;;;20.20;100.00;100402.09;5137620;27;20114;-74
2021/05/16 06:18:08;;;;;;;6.15;3.53;;;;;;;19.88;100.00;100405.84;5138289;27;20031;-74
2021/05/16 06:20:54;;;;;;;9.10;4.25;;;;;;;20.69;100.00;100414.91;5137494;27;20027;-73
2021/05/16 06:24:22;;;;;;;5.50;3.60;;;;;;;20.69;100.00;100414.91;5121950;27;20111;-75
2021/05/16 06:26:49;;;;;;;8.25;4.13;;;;;;;20.57;100.00;100409.53;5136686;27;20435;-75
2021/05/16 06:29:34;;;;;;;6.20;4.05;;;;;;;20.66;100.00;100417.75;5135997;27;20019;-75
2021/05/16 06:32:20;;;;;;;7.75;4.47;;;;;;;20.92;100.00;100418.78;5122451;27;20055;-74
2021/05/16 06:35:06;;;;;;;4.28;3.63;;;;;;;20.82;100.00;100417.66;5137872;27;20023;-74
2021/05/16 06:37:52;;;;;;;6.57;3.83;;;;;;;21.18;100.00;100421.47;5137426;27;20063;-75
2021/05/16 06:40:38;;;;;;;6.35;4.20;;;;;;;21.30;100.00;100420.66;5137345;27;20019;-75
2021/05/16 06:43:24;;;;;;;6.88;3.97;;;;;;;20.79;100.00;100424.03;5137089;27;20106;-75
2021/05/16 06:46:10;;;;;;;6.38;4.13;;;;;;;20.78;100.00;100414.31;5122371;27;20447;-74
2021/05/16 06:48:56;;;;;;;7.20;4.68;;;;;;;21.14;100.00;100417.28;5137292;27;20027;-75
2021/05/16 06:51:42;;;;;;;7.15;4.07;;;;;;;20.60;100.00;100418.16;5123164;27;20038;-75
2021/05/16 06:54:27;;;;;;;5.82;4.18;;;;;;;21.28;100.00;100416.41;5122896;27;20053;-74
2021/05/16 06:57:13;;;;;;;6.35;4.43;;;;;;;20.80;100.00;100425.75;5121697;27;20504;-75
2021/05/16 06:59:59;;;;;;;6.63;4.50;;;;;;;21.67;100.00;100421.75;5137030;27;20328;-74
2021/05/16 07:02:45;;;;;;;6.18;4.40;;;;;;;22.03;100.00;100419.28;5122586;27;20035;-73
2021/05/16 07:05:30;;;;;;;5.70;4.30;;;;;;;22.12;100.00;100424.81;5136993;27;20023;-74
2021/05/16 07:08:16;;;;;;;9.02;3.70;;;;;;;22.20;100.00;100421.59;5136923;27;20054;-75
2021/05/16 07:11:03;;;;;;;5.90;3.80;;;;;;;22.57;100.00;100418.09;5136153;27;20026;-75
2021/05/16 07:13:49;;;;;;;5.38;3.85;;;;;;;22.00;100.00;100417.66;5136581;27;20080;-74
2021/05/16 07:16:34;;;;;;;10.45;3.60;;;;;;;22.07;100.00;100424.25;5137303;27;20467;-74
2021/05/16 07:19:21;;;;;;;6.78;4.00;;;;;;;22.50;100.00;100427.47;5136107;27;20050;-74
2021/05/16 07:22:07;;;;;;;5.63;3.33;;;;;;;22.49;100.00;100426.66;5137338;27;20023;-75
2021/05/16 07:24:52;;;;;;;6.28;3.70;;;;;;;22.45;100.00;100421.59;5137008;27;20444;-74
2021/05/16 07:27:38;;;;;;;10.00;3.83;;;;;;;22.72;100.00;100431.22;5136591;27;20088;-74
2021/05/16 07:30:25;;;;;;;8.45;3.88;;;;;;;22.31;100.00;100429.72;5120837;27;20039;-75
2021/05/16 07:33:10;;;;;;;6.10;3.70;;;;;;;21.97;100.00;100419.66;5136274;27;20019;-74
2021/05/16 07:35:57;;;;;;;9.05;3.90;;;;;;;22.18;100.00;100427.06;5122111;27;20019;-76
2021/05/16 07:38:45;;;;;;;5.35;3.75;;;;;;;21.72;100.00;100423.19;5136892;27;20088;-76
2021/05/16 07:41:31;;;;;;;5.95;3.40;;;;;;;22.07;100.00;100423.44;5136312;27;20027;-75
2021/05/16 07:44:16;;;;;;;5.53;3.60;;;;;;;22.09;100.00;100432.16;5120775;27;20019;-75
2021/05/16 07:47:02;;;;;;;6.38;3.83;;;;;;;22.86;100.00;100428.38;5136009;27;20031;-76
2021/05/16 07:49:48;;;;;;;5.30;3.60;;;;;;;22.70;100.00;100430.47;5135698;27;20511;-76
2021/05/16 07:52:34;;;;;;;6.90;3.85;;;;;;;22.26;100.00;100430.03;5121808;27;20041;-76
2021/05/16 07:55:20;;;;;;;5.18;4.60;;;;;;;22.30;100.00;100436.03;5135250;27;20126;-75
2021/05/16 07:58:06;;;;;;;7.35;4.55;;;;;;;22.74;100.00;100434.63;5120838;27;20033;-75
2021/05/16 08:00:52;;;;;;;7.88;4.97;;;;;;;23.10;100.00;100439.97;5135428;27;20411;-76
2021/05/16 08:03:37;;;;;;;8.15;4.65;;;;;;;22.71;100.00;100439.34;5135527;27;20031;-76
2021/05/16 08:06:24;;;;;;;6.03;4.60;;;;;;;22.61;100.00;100440.94;5135609;27;20058;-76
2021/05/16 08:09:09;;;;;;;8.85;5.28;;;;;;;22.82;100.00;100442.06;5136755;27;20470;-75
2021/05/16 08:11:55;;;;;;;9.00;5.50;;;;;;;22.09;100.00;100443.72;5134716;27;20035;-75
2021/05/16 08:14:41;;;;;;;7.38;5.30;;;;;;;22.66;100.00;100447.66;5135208;27;20110;-76
2021/05/16 08:17:27;;;;;;;7.53;5.30;;;;;;;22.98;100.00;100438.19;5135996;27;20015;-75
2021/05/16 08:20:14;;;;;;;6.82;5.70;;;;;;;22.47;100.00;100443.75;5134702;27;20027;-75
2021/05/16 08:23:00;;;;;;;6.40;5.80;;;;;;;22.35;100.00;100445.41;5136146;27;20512;-75
2021/05/16 08:25:46;;;;;;;6.18;5.10;;;;;;;22.43;100.00;100440.38;5135106;27;20034;-75
2021/05/16 08:28:31;;;;;;;7.03;5.80;;;;;;;22.82;100.00;100439.41;5135583;27;20026;-75
2021/05/16 08:31:17;;;;;;;6.90;6.10;;;;;;;22.64;100.00;100435.38;5135112;27;20019;-75
2021/05/16 08:34:05;;;;;;;6.45;5.40;;;;;;;22.92;100.00;100440.44;5134262;27;20030;-75
2021/05/16 08:36:51;;;;;;;7.10;5.72;;;;;;;22.83;100.00;100441.13;5135349;27;20019;-76
2021/05/16 08:39:37;;;;;;;6.47;5.78;;;;;;;22.79;100.00;100443.13;5135161;27;20023;-75
2021/05/16 08:42:23;;;;;;;7.10;5.00;;;;;;;23.00;100.00;100441.63;5119879;27;20123;-75
2021/05/16 08:45:12;;;;;;;6.30;5.70;;;;;;;23.08;100.00;100438.38;5134538;27;20382;-74
2021/05/16 08:47:59;;;;;;;6.35;5.75;;;;;;;22.93;100.00;100437.66;5135199;27;20015;-76
2021/05/16 08:50:46;;;;;;;7.78;5.60;;;;;;;23.06;100.00;100446.50;5134783;27;20089;-75
2021/05/16 08:53:34;;;;;;;6.05;5.40;;;;;;;24.26;100.00;100440.97;5135979;27;20037;-76
2021/05/16 08:56:20;;;;;;;7.75;6.28;;;;;;;24.04;100.00;100439.09;5119544;27;20053;-76
2021/05/16 08:59:05;;;;;;;6.53;5.68;;;;;;;23.80;100.00;100440.06;5134912;27;20474;-76
2021/05/16 09:01:54;;;;;;;6.88;5.60;;;;;;;23.76;100.00;100430.56;5134436;28;20023;-75
2021/05/16 09:04:40;;;;;;;5.40;4.90;;;;;;;23.95;100.00;100439.78;5134247;28;20095;-76
2021/05/16 09:07:31;;;;;;;7.25;5.20;;;;;;;24.14;100.00;100440.06;5134358;28;20348;-76
2021/05/16 09:10:24;;;;;;;6.50;5.40;;;;;;;23.38;100.00;100445.00;5135375;28;20070;-76
2021/05/16 09:13:22;;;;;;;6.68;5.35;;;;;;;23.11;100.00;100436.31;5120063;28;20027;-75
2021/05/16 09:16:13;;;;;;;6.72;5.38;;;;;;;23.24;100.00;100438.97;5134650;28;20046;-75
2021/05/16 09:19:03;;;;;;;6.60;5.28;;;;;;;24.30;100.00;100427.19;5135192;28;20106;-76
2021/05/16 09:21:49;;;;;;;6.40;4.95;;;;;;;24.36;100.00;100432.09;5119317;28;20448;-75
2021/05/16 09:24:35;;;;;;;6.93;5.05;;;;;;;24.07;100.00;100433.47;5134745;28;20039;-75
2021/05/16 09:27:24;;;;;;;8.27;4.90;;;;;;;23.56;100.00;100424.06;5134757;28;20019;-76
2021/05/16 09:30:19;;;;;;;4.90;4.40;;;;;;;23.69;100.00;100422.16;5135603;28;20023;-75
2021/05/16 09:33:08;;;;;;;5.80;4.22;;;;;;;23.94;100.00;100414.00;5136358;27;20110;-76
2021/05/16 09:35:55;;;;;;;3.72;3.42;;;;;;;24.72;100.00;100418.47;5139313;27;20030;-76
2021/05/16 09:38:41;;;;;;;6.43;4.40;;;;;;;24.41;100.00;100410.28;5124447;27;20027;-76
2021/05/16 09:41:26;;;;;;;5.32;4.47;;;;;;;24.07;100.00;100412.06;5138411;27;20019;-76
2021/05/16 09:44:28;;;;;;;5.03;4.50;;;;;;;23.82;100.00;100395.34;5122877;27;20038;-76
2021/05/16 09:47:21;;;;;;;6.43;4.72;;;;;;;24.16;100.00;100397.13;5123247;27;20027;-76
2021/05/16 09:50:07;;;;;;;5.57;4.90;;;;;;;23.83;100.00;100391.69;5138231;27;20023;-75
2021/05/16 09:52:58;;;;;;;7.18;5.18;;;;;;;23.78;100.00;100386.66;5138292;27;20095;-76
2021/05/16 09:55:44;;;;;;;6.57;4.80;;;;;;;23.53;100.00;100378.81;5137350;27;20039;-76
2021/05/16 09:58:30;;;;;;;6.60;5.05;;;;;;;23.15;100.00;100376.31;5138135;27;20054;-76
2021/05/16 10:01:17;;;;;;;7.25;5.05;;;;;;;23.67;100.00;100373.28;5137568;27;20027;-76
2021/05/16 10:04:05;;;;;;;7.38;5.65;;;;;;;23.46;100.00;100377.56;5138650;27;20042;-76
2021/05/16 10:06:50;;;;;;;4.85;4.45;;;;;;;23.32;100.00;100369.75;5138700;27;20066;-76
2021/05/16 10:09:36;;;;;;;5.47;4.85;;;;;;;23.43;100.00;100362.63;5138081;27;20110;-76
2021/05/16 10:12:23;;;;;;;8.68;4.82;;;;;;;24.27;100.00;100359.66;5138014;27;20118;-77
2021/05/16 10:15:23;;;;;;;5.03;4.53;;;;;;;24.38;100.00;100347.09;5138141;27;20023;-75
2021/05/16 10:18:10;;;;;;;6.18;4.30;;;;;;;22.95;100.00;100339.53;5136902;27;20084;-76
2021/05/16 10:20:56;;;;;;;7.18;4.40;;;;;;;24.18;100.00;100328.25;5122395;27;20087;-76
2021/05/16 10:23:42;;;;;;;5.32;4.25;;;;;;;24.42;100.00;100324.47;5138014;27;20031;-76
2021/05/16 10:26:28;;;;;;;7.07;4.82;;;;;;;24.28;100.00;100326.53;5122102;27;20029;-76
2021/05/16 10:29:17;;;;;;;8.80;5.43;;;;;;;24.30;100.00;100328.13;5137882;27;20061;-75
2021/05/16 10:32:19;;;;;;;5.93;5.32;;;;;;;24.29;100.00;100336.28;5121321;27;20355;-76
2021/05/16 10:35:06;;;;;;;6.00;5.15;;;;;;;24.54;100.00;100338.69;5122862;27;20046;-76
2021/05/16 10:37:56;;;;;;;5.40;4.90;;;;;;;24.60;100.00;100336.38;5136852;27;20386;-76
2021/05/16 10:40:43;;;;;;;5.43;4.43;;;;;;;25.42;96.50;100330.41;5137897;27;20042;-76
2021/05/16 10:43:29;;;;;;;7.65;4.53;;;;;;;25.80;91.23;100325.31;5137962;27;20109;-76
2021/05/16 10:46:36;;;;;;;5.13;4.45;;;;;;;25.27;93.45;100313.75;5137470;27;20019;-76
2021/05/16 10:49:24;;;;;;;6.10;4.90;;;;;;;25.64;95.40;100322.25;5137234;27;20076;-76
2021/05/16 10:52:30;;;;;;;6.57;4.63;;;;;;;25.48;91.88;100320.00;5136340;27;20038;-76
2021/05/16 10:55:33;;;;;;;5.53;4.55;;;;;;;25.55;88.17;100310.47;5137029;27;20375;-76
2021/05/16 10:58:31;;;;;;;5.10;4.47;;;;;;;26.16;90.21;100316.78;5137812;27;20106;-76
2021/05/16 11:01:37;;;;;;;7.88;4.38;;;;;;;26.41;88.21;100317.13;5122641;27;20051;-76
2021/05/16 11:04:47;;;;;;;4.78;4.38;;;;;;;26.88;84.43;100318.28;5136465;27;20100;-76
2021/05/16 11:07:34;;;;;;;5.00;4.50;;;;;;;26.29;85.83;100318.22;5122100;27;20038;-76
2021/05/16 11:10:28;;;;;;;5.97;4.35;;;;;;;26.09;88.78;100304.88;5136806;27;20033;-75
2021/05/16 11:13:23;;;;;;;7.32;4.60;;;;;;;26.16;91.88;100306.03;5120488;27;20038;-75
2021/05/16 11:16:10;;;;;;;5.45;4.57;;;;;;;25.84;92.31;100310.66;5136319;27;20363;-75
2021/05/16 11:18:55;;;;;;;5.25;4.75;;;;;;;25.55;90.72;100312.31;5135656;27;20034;-76
2021/05/16 11:21:42;;;;;;;5.30;4.50;;;;;;;25.85;90.56;100315.03;5121693;27;20027;-76
2021/05/16 11:24:36;;;;;;;4.60;4.20;;;;;;;25.34;88.87;100306.06;5135155;27;20420;-76
2021/05/16 11:27:25;;;;;;;4.90;4.40;;;;;;;25.65;88.40;100307.84;5121822;27;20098;-76
2021/05/16 11:30:12;;;;;;;5.25;4.55;;;;;;;25.38;90.01;100302.16;5121753;27;20459;-77
2021/05/16 11:32:57;;;;;;;4.95;4.40;;;;;;;24.92;91.69;100305.16;5121050;27;20165;-76
2021/05/16 11:35:43;;;;;;;5.78;4.35;;;;;;;26.07;86.15;100298.75;5139624;27;20060;-76
2021/05/16 11:38:32;;;;;;;7.28;5.15;;;;;;;25.66;87.77;100302.34;5140611;27;20037;-75
2021/05/16 11:41:36;;;;;;;6.05;4.65;;;;;;;25.48;88.42;100303.91;5121041;27;20015;-77
2021/05/16 11:44:24;;;;;;;5.75;4.60;;;;;;;25.47;86.48;100296.84;5142393;27;20023;-76
2021/05/16 11:47:10;;;;;;;7.22;4.40;;;;;;;25.64;86.47;100290.88;5138667;27;20034;-76
2021/05/16 11:49:56;;;;;;;6.90;5.00;;;;;;;25.37;88.69;100290.59;5135508;27;20111;-77
2021/05/16 11:52:42;;;;;;;6.25;4.60;;;;;;;25.70;90.25;100285.00;5120812;27;20023;-76
2021/05/16 11:55:27;;;;;;;5.20;4.68;;;;;;;25.48;87.94;100282.44;5137152;27;20130;-75
2021/05/16 11:58:13;;;;;;;5.68;4.85;;;;;;;24.48;92.33;100270.41;5138252;27;20054;-76
2021/05/16 12:00:59;;;;;;;7.50;5.30;;;;;;;24.28;93.87;100273.00;5120512;27;20037;-77
2021/05/16 12:04:00;;;;;;;5.32;4.80;;;;;;;24.66;91.64;100271.59;5136889;27;20434;-77
2021/05/16 12:06:56;;;;;;;7.72;5.18;;;;;;;25.41;89.00;100257.16;5135434;27;20027;-77
2021/05/16 12:09:42;;;;;;;6.93;4.70;;;;;;;25.06;90.10;100255.72;5135385;27;20039;-77
2021/05/16 12:12:28;;;;;;;6.60;4.85;;;;;;;26.06;85.10;100249.59;5135269;27;20165;-78
2021/05/16 12:15:23;;;;;;;8.80;5.03;;;;;;;26.41;85.34;100252.66;5134314;27;20049;-77
2021/05/16 12:18:22;;;;;;;7.40;4.18;;;;;;;25.08;96.08;100249.25;5135079;27;20390;-77
2021/05/16 12:21:09;;;;;;;4.68;4.15;;;;;;;24.79;100.00;100250.00;5120064;27;20088;-76
2021/05/16 12:24:01;;;;;;;7.32;4.75;;;;;;;25.23;99.99;100247.13;5119946;27;20058;-78
2021/05/16 12:26:48;;;;;;;5.97;4.35;;;;;;;25.35;97.15;100259.50;5135579;27;20413;-77
2021/05/16 12:29:34;;;;;;;5.97;5.15;;;;;;;25.26;91.24;100257.56;5135013;27;20023;-77
2021/05/16 12:32:21;;;;;;;5.97;4.90;;;;;;;25.30;89.01;100259.91;5119605;27;20031;-77
2021/05/16 12:35:08;;;;;;;6.97;4.30;;;;;;;24.53;99.64;100261.97;5135859;27;20037;-77
2021/05/16 12:37:54;;;;;;;5.70;4.38;;;;;;;24.21;100.00;100248.53;5135071;27;20031;-77
2021/05/16 12:40:40;;;;;;;5.15;4.40;;;;;;;24.44;100.00;100249.34;5135902;27;20019;-77
2021/05/16 12:43:26;;;;;;;6.97;4.68;;;;;;;24.02;100.00;100247.47;5134376;27;20080;-77
2021/05/16 12:46:11;;;;;;;10.43;4.75;;;;;;;23.51;100.00;100248.88;5134655;27;20108;-77